Holts Summit, Missouri
Current Conditions -  °F | °C
As of 6:53 PM on Monday 22 Dec 2014 (Local Time) from KJEF Reporting Station
Light Rain Light Rain  
Wind Chill:   Ceiling: 900
Heat Index:   Visibility: 6mi
Dew Point:   Wind: 6mph
Humidity: 93%   Direction: 170°S
Pressure: 29.5"   Gusts: NA
Location:  38.64°N, 92.12°W
Report Text: KJEF 230053Z 17005KT 6SM -RA BR BKN009 OVC016 09/08 A2950 RMK AO2 CIG 005V013 SLP980 P0006 T00940083
Loading
Personal Weather Stations






























Interactive Weather Map New forecast layout! Learn more

10-Day Weather Forecast

Advertisements
Track Severe Weather on mobile